createdAt,value
2022-09-07T00:01:02.792Z,15.01
2022-09-07T00:03:30.790Z,15.06
2022-09-07T00:05:59.206Z,15.11
2022-09-07T00:08:28.421Z,15.16
2022-09-07T00:10:57.767Z,15.21
2022-09-07T00:13:28.281Z,15.26
2022-09-07T00:15:58.485Z,15.28
2022-09-07T00:18:26.896Z,15.27
2022-09-07T00:21:06.225Z,15.30
2022-09-07T00:23:35.565Z,15.32
2022-09-07T00:26:04.765Z,15.33
2022-09-07T00:28:32.968Z,15.36
2022-09-07T00:31:02.361Z,15.40
2022-09-07T00:33:30.397Z,15.41
2022-09-07T00:35:59.634Z,15.46
2022-09-07T00:38:27.579Z,15.46
2022-09-07T00:40:55.673Z,15.46
2022-09-07T00:43:32.726Z,15.50
2022-09-07T00:46:02.566Z,15.62
2022-09-07T00:48:35.348Z,15.57
2022-09-07T00:51:06.312Z,15.55
2022-09-07T00:53:39.314Z,15.48
2022-09-07T00:56:08.462Z,15.49
2022-09-07T00:58:38.782Z,15.49
2022-09-07T01:01:09.740Z,15.46
2022-09-07T01:03:40.598Z,15.47
2022-09-07T01:06:15.331Z,15.51
2022-09-07T01:08:44.603Z,15.50
2022-09-07T01:11:12.969Z,15.47
2022-09-07T01:13:42.120Z,15.40
2022-09-07T01:16:22.050Z,15.35
2022-09-07T01:19:01.260Z,15.29
2022-09-07T01:21:44.385Z,15.23
2022-09-07T01:24:38.877Z,15.17
2022-09-07T01:27:45.536Z,15.14
2022-09-07T01:30:15.625Z,15.10
2022-09-07T01:33:02.394Z,15.08
2022-09-07T01:35:42.603Z,15.03
2022-09-07T01:38:19.053Z,14.98
2022-09-07T01:40:52.590Z,15.00
2022-09-07T01:43:30.346Z,15.02
2022-09-07T01:46:01.218Z,15.04
2022-09-07T01:48:29.316Z,15.05
2022-09-07T01:51:00.322Z,15.10
2022-09-07T01:53:34.100Z,15.17
2022-09-07T01:56:06.150Z,15.20
2022-09-07T01:58:40.607Z,15.21
2022-09-07T02:01:12.378Z,15.29
2022-09-07T02:03:43.497Z,15.24
2022-09-07T02:06:17.449Z,15.21
2022-09-07T02:08:52.249Z,15.23
2022-09-07T02:11:24.190Z,15.24
2022-09-07T02:13:59.424Z,15.27
2022-09-07T02:16:28.818Z,15.27
2022-09-07T02:18:59.882Z,15.33
2022-09-07T02:21:35.300Z,15.39
2022-09-07T02:24:10.548Z,15.39
2022-09-07T02:26:40.812Z,15.46
2022-09-07T02:29:10.229Z,15.57
2022-09-07T02:31:38.203Z,15.60
2022-09-07T02:34:09.674Z,15.60
2022-09-07T02:36:42.663Z,15.61
2022-09-07T02:39:10.545Z,15.58
2022-09-07T02:41:40.681Z,15.53
2022-09-07T02:44:14.029Z,15.46
2022-09-07T02:46:53.638Z,15.41
2022-09-07T02:49:36.193Z,15.35
2022-09-07T02:52:13.200Z,15.31
2022-09-07T02:54:54.807Z,15.27
2022-09-07T02:57:32.693Z,15.20
2022-09-07T03:00:09.782Z,15.19
2022-09-07T03:02:48.199Z,15.17
2022-09-07T03:05:21.923Z,15.15
2022-09-07T03:07:55.934Z,15.12
2022-09-07T03:10:27.180Z,15.08
2022-09-07T03:12:55.312Z,15.10
2022-09-07T03:15:27.791Z,15.15
2022-09-07T03:17:56.219Z,15.18
2022-09-07T03:20:24.292Z,15.19
2022-09-07T03:22:53.270Z,15.25
2022-09-07T03:25:23.065Z,15.26
2022-09-07T03:27:50.972Z,15.33
2022-09-07T03:30:19.016Z,15.27
2022-09-07T03:32:48.243Z,15.24
2022-09-07T03:35:16.191Z,15.21
2022-09-07T03:37:44.126Z,15.17
2022-09-07T03:40:17.725Z,15.13
2022-09-07T03:42:49.497Z,15.10
2022-09-07T03:45:17.684Z,15.09
2022-09-07T03:47:45.769Z,15.07
2022-09-07T03:50:14.943Z,15.07
2022-09-07T03:52:44.730Z,15.08
2022-09-07T03:55:12.705Z,15.11
2022-09-07T03:57:41.086Z,15.11
2022-09-07T04:00:09.961Z,15.11
2022-09-07T04:02:37.910Z,15.12
2022-09-07T04:05:06.393Z,15.13
2022-09-07T04:07:35.628Z,15.17
2022-09-07T04:10:03.504Z,15.18
2022-09-07T04:12:37.161Z,15.21
2022-09-07T04:15:05.492Z,15.19
2022-09-07T04:17:33.361Z,15.19
2022-09-07T04:20:01.222Z,15.20
2022-09-07T04:22:29.092Z,15.21
2022-09-07T04:24:58.309Z,15.18
2022-09-07T04:27:26.158Z,15.22
2022-09-07T04:29:54.046Z,15.22
2022-09-07T04:32:21.916Z,15.27
2022-09-07T04:34:51.926Z,15.27
2022-09-07T04:37:19.789Z,15.25
2022-09-07T04:39:47.715Z,15.25
2022-09-07T04:42:17.024Z,15.23
2022-09-07T04:44:45.094Z,15.26
2022-09-07T04:47:12.961Z,15.28
2022-09-07T04:49:40.789Z,15.27
2022-09-07T04:52:08.682Z,15.25
2022-09-07T04:54:36.556Z,15.26
2022-09-07T04:57:04.499Z,15.28
2022-09-07T04:59:33.758Z,15.26
2022-09-07T05:02:01.682Z,15.28
2022-09-07T05:04:29.610Z,15.26
2022-09-07T05:06:57.546Z,15.25
2022-09-07T05:09:25.414Z,15.27
2022-09-07T05:11:53.354Z,15.30
2022-09-07T05:14:21.567Z,15.33
2022-09-07T05:16:50.895Z,15.40
2022-09-07T05:19:18.864Z,15.40
2022-09-07T05:21:46.703Z,15.44
2022-09-07T05:24:14.602Z,15.42
2022-09-07T05:26:42.453Z,15.43
2022-09-07T05:32:03.873Z,15.48
2022-09-07T05:34:32.391Z,15.57
2022-09-07T05:37:01.187Z,15.59
2022-09-07T05:39:29.529Z,15.66
2022-09-07T05:41:57.669Z,15.71
2022-09-07T05:47:15.159Z,15.92
2022-09-07T05:49:43.027Z,16.05
2022-09-07T05:52:12.108Z,16.22
2022-09-07T05:54:40.190Z,16.42
2022-09-07T05:57:08.391Z,16.62
2022-09-07T05:59:36.290Z,16.74
2022-09-07T06:02:04.774Z,16.85
2022-09-07T06:04:34.376Z,16.87
2022-09-07T06:07:21.015Z,16.94
2022-09-07T06:12:37.267Z,16.94
2022-09-07T06:15:05.964Z,16.93
2022-09-07T06:17:34.004Z,16.93
2022-09-07T06:20:03.831Z,16.99
2022-09-07T06:22:31.720Z,17.09
2022-09-07T06:25:00.037Z,17.14
2022-09-07T06:27:28.219Z,17.24
2022-09-07T06:29:56.234Z,17.33
2022-09-07T06:35:14.407Z,17.55
2022-09-07T06:37:42.777Z,17.77
2022-09-07T06:40:12.009Z,17.99
2022-09-07T06:42:40.062Z,18.23
2022-09-07T06:45:10.092Z,18.40
2022-09-07T06:47:38.082Z,18.58
2022-09-07T06:50:06.418Z,18.65
2022-09-07T06:55:25.720Z,18.84
2022-09-07T06:57:54.379Z,18.96
2022-09-07T07:00:23.935Z,19.09
2022-09-07T07:02:52.005Z,19.25
2022-09-07T07:05:19.966Z,19.46
2022-09-07T07:07:49.213Z,19.63
2022-09-07T07:10:19.695Z,19.72
2022-09-07T07:12:50.166Z,19.85
2022-09-07T07:15:18.032Z,19.97
2022-09-07T07:17:47.985Z,20.09
2022-09-07T07:20:19.967Z,20.22
2022-09-07T07:22:52.614Z,20.35
2022-09-07T07:25:21.082Z,20.46
2022-09-07T07:27:49.646Z,20.60
2022-09-07T07:30:19.039Z,20.79
2022-09-07T07:32:47.760Z,21.01
2022-09-07T07:35:16.461Z,21.24
2022-09-07T07:37:44.290Z,21.40
2022-09-07T07:40:15.545Z,21.39
2022-09-07T07:42:44.704Z,21.35
2022-09-07T07:48:00.941Z,21.56
2022-09-07T07:50:32.653Z,21.65
2022-09-07T07:55:51.334Z,21.74
2022-09-07T07:58:19.781Z,21.70
2022-09-07T08:00:54.635Z,21.69
2022-09-07T08:03:23.001Z,21.61
2022-09-07T08:05:50.961Z,21.61
2022-09-07T08:08:19.030Z,21.50
2022-09-07T08:10:47.808Z,21.47
2022-09-07T08:13:17.797Z,21.44
2022-09-07T08:15:46.529Z,21.50
2022-09-07T08:18:15.653Z,21.51
2022-09-07T08:20:43.983Z,21.58
2022-09-07T08:23:11.860Z,21.60
2022-09-07T08:25:39.796Z,21.61
2022-09-07T08:28:07.635Z,21.72
2022-09-07T08:30:39.896Z,21.79
2022-09-07T08:33:07.658Z,21.79
2022-09-07T08:35:35.381Z,21.90
2022-09-07T08:38:03.091Z,22.01
2022-09-07T08:40:32.225Z,22.15
2022-09-07T08:43:09.047Z,22.23
2022-09-07T08:45:44.793Z,22.13
2022-09-07T08:48:18.426Z,22.12
2022-09-07T08:50:59.447Z,22.27
2022-09-07T08:53:28.604Z,22.28
2022-09-07T08:55:59.389Z,22.35
2022-09-07T08:58:48.808Z,22.45
2022-09-07T09:01:36.496Z,22.45
2022-09-07T09:04:21.420Z,22.53
2022-09-07T09:07:06.622Z,22.66
2022-09-07T09:09:52.293Z,22.86
2022-09-07T09:12:29.075Z,23.08
2022-09-07T09:15:10.026Z,23.31
2022-09-07T09:17:45.626Z,23.39
2022-09-07T09:20:24.875Z,23.59
2022-09-07T09:22:53.093Z,23.82
2022-09-07T09:25:22.994Z,24.04
2022-09-07T09:27:51.062Z,24.04
2022-09-07T09:30:20.566Z,24.13
2022-09-07T09:32:52.527Z,24.22
2022-09-07T09:35:28.318Z,24.35
2022-09-07T09:37:57.592Z,24.33
2022-09-07T09:40:28.363Z,24.38
2022-09-07T09:43:05.396Z,24.50
2022-09-07T09:48:32.287Z,24.96
2022-09-07T09:53:57.164Z,25.37
2022-09-07T09:56:37.889Z,25.85
2022-09-07T10:05:28.705Z,24.87
2022-09-07T10:07:57.496Z,24.59
2022-09-07T10:10:27.372Z,24.62
2022-09-07T10:12:55.998Z,24.55
2022-09-07T10:15:32.852Z,24.75
2022-09-07T10:18:07.013Z,24.58
2022-09-07T10:20:38.679Z,24.34
2022-09-07T10:23:19.350Z,24.36
2022-09-07T10:25:47.573Z,24.30
2022-09-07T10:28:20.280Z,24.31
2022-09-07T10:31:11.003Z,24.43
2022-09-07T10:36:45.704Z,24.50
2022-09-07T10:39:18.003Z,24.35
2022-09-07T10:41:54.184Z,24.76
2022-09-07T10:44:32.066Z,24.35
2022-09-07T10:47:08.795Z,24.60
2022-09-07T10:50:21.920Z,24.83
2022-09-07T10:52:40.120Z,25.13
2022-09-07T10:55:15.317Z,25.04
2022-09-07T10:57:56.174Z,24.96
2022-09-07T11:00:25.742Z,24.86
2022-09-07T11:03:31.082Z,25.10
2022-09-07T11:06:16.129Z,25.12
2022-09-07T11:09:16.509Z,25.05
2022-09-07T11:12:04.269Z,25.06
2022-09-07T11:14:37.675Z,25.27
2022-09-07T11:17:14.160Z,25.42
2022-09-07T11:19:48.711Z,25.45
2022-09-07T11:22:23.741Z,25.50
2022-09-07T11:27:49.826Z,25.69
2022-09-07T11:30:21.723Z,25.54
2022-09-07T11:32:55.578Z,25.71
2022-09-07T11:35:32.385Z,26.02
2022-09-07T11:38:06.357Z,26.10
2022-09-07T11:40:40.477Z,25.88
2022-09-07T11:43:17.708Z,25.74
2022-09-07T11:45:49.812Z,25.89
2022-09-07T11:48:22.390Z,25.93
2022-09-07T11:50:57.454Z,25.98
2022-09-07T11:53:29.023Z,25.99
2022-09-07T11:56:03.026Z,26.30
2022-09-07T11:58:57.600Z,26.34
2022-09-07T12:01:36.388Z,26.05
2022-09-07T12:04:34.797Z,26.28
2022-09-07T12:07:25.034Z,26.68
2022-09-07T12:10:08.146Z,27.05
2022-09-07T12:13:02.261Z,27.02
2022-09-07T12:15:38.119Z,26.83
2022-09-07T12:18:18.215Z,26.83
2022-09-07T12:20:48.127Z,26.85
2022-09-07T12:23:28.555Z,26.84
2022-09-07T12:26:45.616Z,26.72
2022-09-07T12:29:23.032Z,26.62
2022-09-07T12:32:52.367Z,26.60
2022-09-07T12:35:01.083Z,26.62
2022-09-07T12:37:42.964Z,26.50
2022-09-07T12:40:48.887Z,26.42
2022-09-07T12:43:52.178Z,26.57
2022-09-07T12:46:43.557Z,26.63
2022-09-07T12:49:25.177Z,26.67
2022-09-07T12:52:05.001Z,26.68
2022-09-07T12:54:46.507Z,26.85
2022-09-07T12:57:32.699Z,27.04
2022-09-07T13:00:12.995Z,26.82
2022-09-07T13:03:03.898Z,26.79
2022-09-07T13:05:51.141Z,26.57
2022-09-07T13:08:42.329Z,26.55
2022-09-07T13:11:24.866Z,26.56
2022-09-07T13:14:02.954Z,26.53
2022-09-07T13:17:15.956Z,26.46
2022-09-07T13:19:56.785Z,26.44
2022-09-07T13:23:12.184Z,26.33
2022-09-07T13:25:49.998Z,26.44
2022-09-07T13:28:56.932Z,26.49
2022-09-07T13:31:45.806Z,26.42
2022-09-07T13:34:49.312Z,26.56
2022-09-07T13:37:20.569Z,26.73
2022-09-07T13:39:52.583Z,26.84
2022-09-07T13:42:25.928Z,27.21
2022-09-07T13:44:58.420Z,27.26
2022-09-07T13:47:35.964Z,26.83
2022-09-07T13:50:17.007Z,26.65
2022-09-07T13:53:02.385Z,26.74
2022-09-07T13:55:38.111Z,26.58
2022-09-07T13:58:17.773Z,26.58
2022-09-07T14:00:54.086Z,26.46
2022-09-07T14:03:24.393Z,26.27
2022-09-07T14:06:17.132Z,26.18
2022-09-07T14:08:49.437Z,26.26
2022-09-07T14:11:22.429Z,26.24
2022-09-07T14:14:14.790Z,26.18
2022-09-07T14:16:44.811Z,26.12
2022-09-07T14:19:18.346Z,26.16
2022-09-07T14:21:55.403Z,26.10
2022-09-07T14:24:29.759Z,26.15
2022-09-07T14:26:57.628Z,26.09
2022-09-07T14:29:30.026Z,26.16
2022-09-07T14:31:59.481Z,26.32
2022-09-07T14:34:32.362Z,26.30
2022-09-07T14:37:04.710Z,26.26
2022-09-07T14:39:37.451Z,26.14
2022-09-07T14:42:07.599Z,25.99
2022-09-07T14:44:40.267Z,25.85
2022-09-07T14:47:13.126Z,25.67
2022-09-07T14:49:40.883Z,25.53
2022-09-07T14:52:08.715Z,25.50
2022-09-07T14:54:36.512Z,25.44
2022-09-07T14:57:30.499Z,25.50
2022-09-07T15:00:20.808Z,25.53
2022-09-07T15:02:50.564Z,25.46
2022-09-07T15:05:27.165Z,25.40
2022-09-07T15:07:57.761Z,25.50
2022-09-07T15:10:41.313Z,25.54
2022-09-07T15:13:25.964Z,25.65
2022-09-07T15:16:01.173Z,25.83
2022-09-07T15:18:50.613Z,25.90
2022-09-07T15:21:18.530Z,25.91
2022-09-07T15:23:51.038Z,25.87
2022-09-07T15:29:10.900Z,25.85
2022-09-07T15:31:56.818Z,25.84
2022-09-07T15:34:29.392Z,25.85
2022-09-07T15:37:00.165Z,25.85
2022-09-07T15:39:33.294Z,25.77
2022-09-07T15:42:59.543Z,25.74
2022-09-07T15:44:50.232Z,25.83
2022-09-07T15:50:08.578Z,25.82
2022-09-07T15:52:37.433Z,25.83
2022-09-07T15:55:06.153Z,25.84
2022-09-07T15:57:54.624Z,25.79
2022-09-07T16:00:21.811Z,25.85
2022-09-07T16:03:07.884Z,25.85
2022-09-07T16:05:36.792Z,25.86
2022-09-07T16:10:55.318Z,25.80
2022-09-07T16:13:24.702Z,25.75
2022-09-07T16:15:52.557Z,25.64
2022-09-07T16:18:21.592Z,25.50
2022-09-07T16:20:52.649Z,25.36
2022-09-07T16:23:21.081Z,25.14
2022-09-07T16:25:59.436Z,24.85
2022-09-07T16:28:28.467Z,24.61
2022-09-07T16:30:56.674Z,24.38
2022-09-07T16:33:33.006Z,24.16
2022-09-07T16:36:06.879Z,23.97
2022-09-07T16:38:50.382Z,23.83
2022-09-07T16:41:20.477Z,23.62
2022-09-07T16:43:48.747Z,23.43
2022-09-07T16:46:18.493Z,23.26
2022-09-07T16:48:47.703Z,23.08
2022-09-07T16:51:18.703Z,22.92
2022-09-07T16:53:46.536Z,22.79
2022-09-07T16:56:17.140Z,22.75
2022-09-07T16:58:46.581Z,22.72
2022-09-07T17:01:18.814Z,22.72
2022-09-07T17:03:49.422Z,22.73
2022-09-07T17:06:19.060Z,22.68
2022-09-07T17:08:47.133Z,22.63
2022-09-07T17:11:17.079Z,22.53
2022-09-07T17:13:45.620Z,22.45
2022-09-07T17:16:17.756Z,22.38
2022-09-07T17:21:40.196Z,22.22
2022-09-07T17:24:09.937Z,22.12
2022-09-07T17:26:37.845Z,22.05
2022-09-07T17:29:07.175Z,21.95
2022-09-07T17:34:26.422Z,21.91
2022-09-07T17:36:54.130Z,21.88
2022-09-07T17:39:22.089Z,21.77
2022-09-07T17:41:52.590Z,21.67
2022-09-07T17:44:20.939Z,21.52
2022-09-07T17:46:48.679Z,21.37
2022-09-07T17:49:17.834Z,21.25
2022-09-07T17:51:47.312Z,21.11
2022-09-07T17:54:17.846Z,20.98
2022-09-07T17:56:46.580Z,20.81
2022-09-07T18:02:02.585Z,20.49
2022-09-07T18:04:30.446Z,20.33
2022-09-07T18:06:59.634Z,20.20
2022-09-07T18:09:27.394Z,20.05
2022-09-07T18:11:55.138Z,19.93
2022-09-07T18:14:22.970Z,19.81
2022-09-07T18:16:51.527Z,19.72
2022-09-07T18:19:19.386Z,19.69
2022-09-07T18:21:48.621Z,19.65
2022-09-07T18:24:20.715Z,19.62
2022-09-07T18:26:51.044Z,19.62
2022-09-07T18:29:31.205Z,19.58
2022-09-07T18:32:07.516Z,19.53
2022-09-07T18:34:36.512Z,19.45
2022-09-07T18:37:04.685Z,19.38
2022-09-07T18:39:35.377Z,19.34
2022-09-07T18:42:03.327Z,19.26
2022-09-07T18:47:27.639Z,19.12
2022-09-07T18:49:56.021Z,18.98
2022-09-07T18:55:15.153Z,18.81
2022-09-07T18:57:43.083Z,18.74
2022-09-07T19:00:12.556Z,18.69
2022-09-07T19:02:40.412Z,18.61
2022-09-07T19:07:56.541Z,18.50
2022-09-07T19:10:25.654Z,18.54
2022-09-07T19:12:53.351Z,18.51
2022-09-07T19:15:21.472Z,18.46
2022-09-07T19:17:49.190Z,18.38
2022-09-07T19:20:17.487Z,18.31
2022-09-07T19:22:45.167Z,18.23
2022-09-07T19:25:12.898Z,18.20
2022-09-07T19:27:41.998Z,18.15
2022-09-07T19:30:10.810Z,18.10
2022-09-07T19:32:40.583Z,18.08
2022-09-07T19:35:08.957Z,18.06
2022-09-07T19:37:36.896Z,18.14
2022-09-07T19:40:05.080Z,18.10
2022-09-07T19:42:32.813Z,18.05
2022-09-07T19:45:02.063Z,18.04
2022-09-07T19:47:29.773Z,18.03
2022-09-07T19:49:57.469Z,17.99
2022-09-07T19:52:27.388Z,17.95
2022-09-07T19:54:57.078Z,17.89
2022-09-07T19:57:24.783Z,17.81
2022-09-07T19:59:56.627Z,17.74
2022-09-07T20:02:25.755Z,17.68
2022-09-07T20:04:54.083Z,17.68
2022-09-07T20:07:21.822Z,17.61
2022-09-07T20:09:51.005Z,17.55
2022-09-07T20:12:19.700Z,17.50
2022-09-07T20:14:56.084Z,17.45
2022-09-07T20:17:25.280Z,17.42
2022-09-07T20:19:53.035Z,17.44
2022-09-07T20:22:20.747Z,17.43
2022-09-07T20:24:48.477Z,17.45
2022-09-07T20:27:16.185Z,17.44
2022-09-07T20:29:43.892Z,17.40
2022-09-07T20:32:11.760Z,17.37
2022-09-07T20:34:40.844Z,17.35
2022-09-07T20:37:08.538Z,17.33
2022-09-07T20:39:39.308Z,17.35
2022-09-07T20:42:07.892Z,17.39
2022-09-07T20:44:35.842Z,17.40
2022-09-07T20:47:03.921Z,17.40
2022-09-07T20:49:31.667Z,17.38
2022-09-07T20:52:00.721Z,17.34
2022-09-07T20:54:28.448Z,17.29
2022-09-07T20:56:56.163Z,17.26
2022-09-07T20:59:25.444Z,17.25
2022-09-07T21:01:53.279Z,17.19
2022-09-07T21:04:21.032Z,17.17
2022-09-07T21:06:48.706Z,17.14
2022-09-07T21:09:17.811Z,17.12
2022-09-07T21:11:49.136Z,17.13
2022-09-07T21:14:19.229Z,17.10
2022-09-07T21:16:46.942Z,17.10
2022-09-07T21:19:14.655Z,17.09
2022-09-07T21:21:43.588Z,17.07
2022-09-07T21:24:18.744Z,17.05
2022-09-07T21:26:47.362Z,17.05
2022-09-07T21:29:18.539Z,17.07
2022-09-07T21:31:46.792Z,17.07
2022-09-07T21:34:18.421Z,17.08
2022-09-07T21:36:46.510Z,17.06
2022-09-07T21:39:14.908Z,17.10
2022-09-07T21:41:45.090Z,17.16
2022-09-07T21:44:15.146Z,17.19
2022-09-07T21:46:43.765Z,17.19
2022-09-07T21:49:11.742Z,17.21
2022-09-07T21:51:39.677Z,17.29
2022-09-07T21:54:07.582Z,17.28
2022-09-07T21:56:35.593Z,17.27
2022-09-07T21:59:04.650Z,17.25
2022-09-07T22:01:33.032Z,17.21
2022-09-07T22:04:02.663Z,17.19
2022-09-07T22:06:32.388Z,17.15
2022-09-07T22:09:01.148Z,17.09
2022-09-07T22:11:30.462Z,17.05
2022-09-07T22:14:00.275Z,16.99
2022-09-07T22:16:30.119Z,16.95
2022-09-07T22:18:57.920Z,16.92
2022-09-07T22:21:28.284Z,16.89
2022-09-07T22:23:58.196Z,16.87
2022-09-07T22:26:28.310Z,16.87
2022-09-07T22:28:58.903Z,16.94
2022-09-07T22:31:28.306Z,17.01
2022-09-07T22:33:59.014Z,17.03
2022-09-07T22:36:28.547Z,17.19
2022-09-07T22:38:58.338Z,17.46
2022-09-07T22:41:27.631Z,17.65
2022-09-07T22:43:56.041Z,17.84
2022-09-07T22:46:25.646Z,18.18
2022-09-07T22:48:54.559Z,18.40
2022-09-07T22:51:25.269Z,18.61
2022-09-07T22:53:53.526Z,18.83
2022-09-07T22:56:22.960Z,19.07
2022-09-07T22:58:52.367Z,19.22
